sensor_id;sensor_type;location;lat;lon;timestamp;temperature;humidity
16797;DHT22;8515;51.064;4.580;2022-09-09T00:01:51;14.60;92.60
16797;DHT22;8515;51.064;4.580;2022-09-09T00:04:26;14.60;92.60
16797;DHT22;8515;51.064;4.580;2022-09-09T00:07:03;14.60;92.60
16797;DHT22;8515;51.064;4.580;2022-09-09T00:09:35;14.60;92.60
16797;DHT22;8515;51.064;4.580;2022-09-09T00:12:11;14.60;92.50
16797;DHT22;8515;51.064;4.580;2022-09-09T00:14:43;14.60;92.50
16797;DHT22;8515;51.064;4.580;2022-09-09T00:17:14;14.60;92.50
16797;DHT22;8515;51.064;4.580;2022-09-09T00:19:50;14.60;92.40
16797;DHT22;8515;51.064;4.580;2022-09-09T00:22:22;14.60;92.50
16797;DHT22;8515;51.064;4.580;2022-09-09T00:24:52;14.60;92.20
16797;DHT22;8515;51.064;4.580;2022-09-09T00:27:26;14.60;92.30
16797;DHT22;8515;51.064;4.580;2022-09-09T00:29:58;14.70;92.40
16797;DHT22;8515;51.064;4.580;2022-09-09T00:32:30;14.70;92.30
16797;DHT22;8515;51.064;4.580;2022-09-09T00:35:01;14.70;92.60
16797;DHT22;8515;51.064;4.580;2022-09-09T00:37:30;14.70;92.30
16797;DHT22;8515;51.064;4.580;2022-09-09T00:40:01;14.70;92.40
16797;DHT22;8515;51.064;4.580;2022-09-09T00:42:34;14.60;92.40
16797;DHT22;8515;51.064;4.580;2022-09-09T00:45:19;14.60;92.40
16797;DHT22;8515;51.064;4.580;2022-09-09T00:47:53;14.60;92.50
16797;DHT22;8515;51.064;4.580;2022-09-09T00:50:38;14.60;92.60
16797;DHT22;8515;51.064;4.580;2022-09-09T00:53:20;14.60;92.50
16797;DHT22;8515;51.064;4.580;2022-09-09T00:55:57;14.60;92.40
16797;DHT22;8515;51.064;4.580;2022-09-09T00:58:29;14.70;92.40
16797;DHT22;8515;51.064;4.580;2022-09-09T01:01:03;14.70;92.40
16797;DHT22;8515;51.064;4.580;2022-09-09T01:03:35;14.70;92.30
16797;DHT22;8515;51.064;4.580;2022-09-09T01:06:11;14.70;92.30
16797;DHT22;8515;51.064;4.580;2022-09-09T01:09:02;14.70;92.30
16797;DHT22;8515;51.064;4.580;2022-09-09T01:11:36;14.70;92.30
16797;DHT22;8515;51.064;4.580;2022-09-09T01:14:24;14.70;92.40
16797;DHT22;8515;51.064;4.580;2022-09-09T01:16:58;14.70;92.40
16797;DHT22;8515;51.064;4.580;2022-09-09T01:19:37;14.60;92.40
16797;DHT22;8515;51.064;4.580;2022-09-09T01:22:11;14.60;92.20
16797;DHT22;8515;51.064;4.580;2022-09-09T01:24:46;14.60;92.40
16797;DHT22;8515;51.064;4.580;2022-09-09T01:27:20;14.60;92.40
16797;DHT22;8515;51.064;4.580;2022-09-09T01:29:47;14.60;92.40
16797;DHT22;8515;51.064;4.580;2022-09-09T01:32:40;14.60;92.30
16797;DHT22;8515;51.064;4.580;2022-09-09T01:35:10;14.60;92.30
16797;DHT22;8515;51.064;4.580;2022-09-09T01:37:39;14.60;92.40
16797;DHT22;8515;51.064;4.580;2022-09-09T01:40:06;14.60;92.40
16797;DHT22;8515;51.064;4.580;2022-09-09T01:42:35;14.70;92.40
16797;DHT22;8515;51.064;4.580;2022-09-09T01:45:03;15.60;92.70
16797;DHT22;8515;51.064;4.580;2022-09-09T01:47:31;14.70;92.40
16797;DHT22;8515;51.064;4.580;2022-09-09T01:49:58;14.70;92.50
16797;DHT22;8515;51.064;4.580;2022-09-09T01:52:26;14.60;92.40
16797;DHT22;8515;51.064;4.580;2022-09-09T01:54:53;14.70;92.50
16797;DHT22;8515;51.064;4.580;2022-09-09T01:57:23;14.70;92.60
16797;DHT22;8515;51.064;4.580;2022-09-09T02:00:03;14.70;92.50
16797;DHT22;8515;51.064;4.580;2022-09-09T02:02:36;14.60;92.60
16797;DHT22;8515;51.064;4.580;2022-09-09T02:05:14;14.60;92.70
16797;DHT22;8515;51.064;4.580;2022-09-09T02:07:47;14.60;92.60
16797;DHT22;8515;51.064;4.580;2022-09-09T02:10:18;14.60;92.60
16797;DHT22;8515;51.064;4.580;2022-09-09T02:12:49;14.60;93.00
16797;DHT22;8515;51.064;4.580;2022-09-09T02:15:32;14.60;92.70
16797;DHT22;8515;51.064;4.580;2022-09-09T02:18:01;14.60;92.70
16797;DHT22;8515;51.064;4.580;2022-09-09T02:20:32;14.60;92.80
16797;DHT22;8515;51.064;4.580;2022-09-09T02:23:01;14.60;92.70
16797;DHT22;8515;51.064;4.580;2022-09-09T02:25:29;14.60;92.60
16797;DHT22;8515;51.064;4.580;2022-09-09T02:27:56;14.60;92.80
16797;DHT22;8515;51.064;4.580;2022-09-09T02:30:27;14.60;92.80
16797;DHT22;8515;51.064;4.580;2022-09-09T02:32:56;14.60;92.90
16797;DHT22;8515;51.064;4.580;2022-09-09T02:35:24;14.60;92.70
16797;DHT22;8515;51.064;4.580;2022-09-09T02:37:55;14.60;92.80
16797;DHT22;8515;51.064;4.580;2022-09-09T02:40:25;14.60;92.90
16797;DHT22;8515;51.064;4.580;2022-09-09T02:42:54;14.60;92.80
16797;DHT22;8515;51.064;4.580;2022-09-09T02:45:27;14.60;92.90
16797;DHT22;8515;51.064;4.580;2022-09-09T02:48:01;14.20;92.60
16797;DHT22;8515;51.064;4.580;2022-09-09T02:50:32;14.60;92.90
16797;DHT22;8515;51.064;4.580;2022-09-09T02:53:07;14.70;92.90
16797;DHT22;8515;51.064;4.580;2022-09-09T02:55:39;14.60;93.00
16797;DHT22;8515;51.064;4.580;2022-09-09T02:58:10;14.70;93.00
16797;DHT22;8515;51.064;4.580;2022-09-09T03:00:40;14.60;92.80
16797;DHT22;8515;51.064;4.580;2022-09-09T03:03:08;14.70;92.70
16797;DHT22;8515;51.064;4.580;2022-09-09T03:05:35;14.70;92.80
16797;DHT22;8515;51.064;4.580;2022-09-09T03:08:03;14.60;92.80
16797;DHT22;8515;51.064;4.580;2022-09-09T03:10:31;14.70;92.90
16797;DHT22;8515;51.064;4.580;2022-09-09T03:12:58;14.70;93.20
16797;DHT22;8515;51.064;4.580;2022-09-09T03:15:25;14.70;93.00
16797;DHT22;8515;51.064;4.580;2022-09-09T03:17:56;14.70;93.00
16797;DHT22;8515;51.064;4.580;2022-09-09T03:20:23;14.70;93.10
16797;DHT22;8515;51.064;4.580;2022-09-09T03:22:51;14.70;93.00
16797;DHT22;8515;51.064;4.580;2022-09-09T03:25:18;14.60;93.00
16797;DHT22;8515;51.064;4.580;2022-09-09T03:27:45;14.60;93.00
16797;DHT22;8515;51.064;4.580;2022-09-09T03:30:12;14.60;93.00
16797;DHT22;8515;51.064;4.580;2022-09-09T03:32:39;14.60;93.00
16797;DHT22;8515;51.064;4.580;2022-09-09T03:35:08;14.60;93.00
16797;DHT22;8515;51.064;4.580;2022-09-09T03:37:35;14.60;93.00
16797;DHT22;8515;51.064;4.580;2022-09-09T03:40:05;14.60;93.00
16797;DHT22;8515;51.064;4.580;2022-09-09T03:42:32;14.60;92.90
16797;DHT22;8515;51.064;4.580;2022-09-09T03:44:59;14.70;93.00
16797;DHT22;8515;51.064;4.580;2022-09-09T03:47:25;14.60;93.00
16797;DHT22;8515;51.064;4.580;2022-09-09T03:49:52;14.60;93.00
16797;DHT22;8515;51.064;4.580;2022-09-09T03:52:21;14.60;93.00
16797;DHT22;8515;51.064;4.580;2022-09-09T03:54:50;14.60;92.90
16797;DHT22;8515;51.064;4.580;2022-09-09T03:57:18;14.60;93.00
16797;DHT22;8515;51.064;4.580;2022-09-09T03:59:45;14.60;93.00
16797;DHT22;8515;51.064;4.580;2022-09-09T04:02:12;14.60;93.10
16797;DHT22;8515;51.064;4.580;2022-09-09T04:04:39;14.60;93.10
16797;DHT22;8515;51.064;4.580;2022-09-09T04:07:06;14.70;93.00
16797;DHT22;8515;51.064;4.580;2022-09-09T04:09:34;14.70;93.10
16797;DHT22;8515;51.064;4.580;2022-09-09T04:12:01;14.60;92.90
16797;DHT22;8515;51.064;4.580;2022-09-09T04:14:28;14.70;93.10
16797;DHT22;8515;51.064;4.580;2022-09-09T04:16:55;14.70;93.10
16797;DHT22;8515;51.064;4.580;2022-09-09T04:19:22;14.70;93.00
16797;DHT22;8515;51.064;4.580;2022-09-09T04:21:50;14.60;92.90
16797;DHT22;8515;51.064;4.580;2022-09-09T04:24:17;14.60;93.10
16797;DHT22;8515;51.064;4.580;2022-09-09T04:26:45;14.60;93.00
16797;DHT22;8515;51.064;4.580;2022-09-09T04:29:12;14.60;93.00
16797;DHT22;8515;51.064;4.580;2022-09-09T04:31:39;14.70;93.10
16797;DHT22;8515;51.064;4.580;2022-09-09T04:34:07;14.70;93.10
16797;DHT22;8515;51.064;4.580;2022-09-09T04:36:34;14.70;93.00
16797;DHT22;8515;51.064;4.580;2022-09-09T04:39:02;14.70;93.10
16797;DHT22;8515;51.064;4.580;2022-09-09T04:41:29;14.70;93.10
16797;DHT22;8515;51.064;4.580;2022-09-09T04:43:58;14.70;93.00
16797;DHT22;8515;51.064;4.580;2022-09-09T04:46:26;14.70;93.10
16797;DHT22;8515;51.064;4.580;2022-09-09T04:48:53;14.70;93.10
16797;DHT22;8515;51.064;4.580;2022-09-09T04:51:20;14.70;93.00
16797;DHT22;8515;51.064;4.580;2022-09-09T04:53:47;14.70;93.00
16797;DHT22;8515;51.064;4.580;2022-09-09T04:56:17;14.70;93.00
16797;DHT22;8515;51.064;4.580;2022-09-09T04:58:44;14.70;93.00
16797;DHT22;8515;51.064;4.580;2022-09-09T05:01:14;14.60;93.00
16797;DHT22;8515;51.064;4.580;2022-09-09T05:03:42;14.70;93.10
16797;DHT22;8515;51.064;4.580;2022-09-09T05:06:12;14.70;93.10
16797;DHT22;8515;51.064;4.580;2022-09-09T05:08:40;14.70;93.10
16797;DHT22;8515;51.064;4.580;2022-09-09T05:11:16;14.70;93.00
16797;DHT22;8515;51.064;4.580;2022-09-09T05:13:43;14.70;93.00
16797;DHT22;8515;51.064;4.580;2022-09-09T05:16:12;14.60;93.00
16797;DHT22;8515;51.064;4.580;2022-09-09T05:18:40;14.60;93.00
16797;DHT22;8515;51.064;4.580;2022-09-09T05:21:08;14.70;93.10
16797;DHT22;8515;51.064;4.580;2022-09-09T05:23:36;14.70;93.00
16797;DHT22;8515;51.064;4.580;2022-09-09T05:26:03;14.70;93.00
16797;DHT22;8515;51.064;4.580;2022-09-09T05:28:31;14.70;92.90
16797;DHT22;8515;51.064;4.580;2022-09-09T05:31:02;14.80;92.90
16797;DHT22;8515;51.064;4.580;2022-09-09T05:33:32;14.80;92.90
16797;DHT22;8515;51.064;4.580;2022-09-09T05:35:59;14.80;92.80
16797;DHT22;8515;51.064;4.580;2022-09-09T05:38:27;14.80;92.90
16797;DHT22;8515;51.064;4.580;2022-09-09T05:40:54;14.80;92.80
16797;DHT22;8515;51.064;4.580;2022-09-09T05:43:22;14.90;92.80
16797;DHT22;8515;51.064;4.580;2022-09-09T05:45:59;14.90;92.90
16797;DHT22;8515;51.064;4.580;2022-09-09T05:48:28;15.00;92.80
16797;DHT22;8515;51.064;4.580;2022-09-09T05:50:56;15.00;92.80
16797;DHT22;8515;51.064;4.580;2022-09-09T05:53:23;15.10;92.80
16797;DHT22;8515;51.064;4.580;2022-09-09T05:55:50;15.10;92.70
16797;DHT22;8515;51.064;4.580;2022-09-09T05:58:18;15.10;92.60
16797;DHT22;8515;51.064;4.580;2022-09-09T06:00:44;15.20;92.60
16797;DHT22;8515;51.064;4.580;2022-09-09T06:03:11;15.20;92.60
16797;DHT22;8515;51.064;4.580;2022-09-09T06:05:38;15.20;92.40
16797;DHT22;8515;51.064;4.580;2022-09-09T06:08:07;15.30;92.40
16797;DHT22;8515;51.064;4.580;2022-09-09T06:10:34;15.30;92.50
16797;DHT22;8515;51.064;4.580;2022-09-09T06:13:01;15.30;92.40
16797;DHT22;8515;51.064;4.580;2022-09-09T06:15:28;15.30;92.30
16797;DHT22;8515;51.064;4.580;2022-09-09T06:17:56;15.40;92.20
16797;DHT22;8515;51.064;4.580;2022-09-09T06:20:23;15.40;92.40
16797;DHT22;8515;51.064;4.580;2022-09-09T06:22:50;15.40;92.10
16797;DHT22;8515;51.064;4.580;2022-09-09T06:25:18;15.50;92.10
16797;DHT22;8515;51.064;4.580;2022-09-09T06:27:48;15.50;92.10
16797;DHT22;8515;51.064;4.580;2022-09-09T06:30:16;15.50;92.00
16797;DHT22;8515;51.064;4.580;2022-09-09T06:32:44;15.50;92.00
16797;DHT22;8515;51.064;4.580;2022-09-09T06:35:11;15.50;91.90
16797;DHT22;8515;51.064;4.580;2022-09-09T06:37:39;15.60;92.00
16797;DHT22;8515;51.064;4.580;2022-09-09T06:40:10;15.60;91.70
16797;DHT22;8515;51.064;4.580;2022-09-09T06:42:39;15.60;91.50
16797;DHT22;8515;51.064;4.580;2022-09-09T06:45:06;15.70;91.40
16797;DHT22;8515;51.064;4.580;2022-09-09T06:47:34;15.70;91.60
16797;DHT22;8515;51.064;4.580;2022-09-09T06:50:00;15.80;91.40
16797;DHT22;8515;51.064;4.580;2022-09-09T06:52:27;15.80;91.50
16797;DHT22;8515;51.064;4.580;2022-09-09T06:54:54;15.80;91.20
16797;DHT22;8515;51.064;4.580;2022-09-09T06:57:23;15.80;91.10
16797;DHT22;8515;51.064;4.580;2022-09-09T06:59:51;15.80;91.10
16797;DHT22;8515;51.064;4.580;2022-09-09T07:02:18;15.80;91.10
16797;DHT22;8515;51.064;4.580;2022-09-09T07:04:45;15.80;91.00
16797;DHT22;8515;51.064;4.580;2022-09-09T07:07:12;15.90;90.80
16797;DHT22;8515;51.064;4.580;2022-09-09T07:09:41;15.90;90.90
16797;DHT22;8515;51.064;4.580;2022-09-09T07:12:07;15.90;90.60
16797;DHT22;8515;51.064;4.580;2022-09-09T07:14:34;16.00;90.80
16797;DHT22;8515;51.064;4.580;2022-09-09T07:17:04;16.00;90.60
16797;DHT22;8515;51.064;4.580;2022-09-09T07:19:31;16.00;90.40
16797;DHT22;8515;51.064;4.580;2022-09-09T07:21:59;16.10;90.20
16797;DHT22;8515;51.064;4.580;2022-09-09T07:24:28;16.00;90.20
16797;DHT22;8515;51.064;4.580;2022-09-09T07:26:55;16.00;90.40
16797;DHT22;8515;51.064;4.580;2022-09-09T07:29:22;16.00;90.20
16797;DHT22;8515;51.064;4.580;2022-09-09T07:31:49;16.10;90.20
16797;DHT22;8515;51.064;4.580;2022-09-09T07:34:17;16.10;90.20
16797;DHT22;8515;51.064;4.580;2022-09-09T07:36:45;16.10;90.20
16797;DHT22;8515;51.064;4.580;2022-09-09T07:39:13;16.20;90.30
16797;DHT22;8515;51.064;4.580;2022-09-09T07:41:42;16.20;90.00
16797;DHT22;8515;51.064;4.580;2022-09-09T07:44:10;16.20;90.10
16797;DHT22;8515;51.064;4.580;2022-09-09T07:46:38;16.30;90.00
16797;DHT22;8515;51.064;4.580;2022-09-09T07:49:07;16.30;90.20
16797;DHT22;8515;51.064;4.580;2022-09-09T07:51:37;16.30;89.80
16797;DHT22;8515;51.064;4.580;2022-09-09T07:54:05;16.30;89.50
16797;DHT22;8515;51.064;4.580;2022-09-09T07:56:33;16.30;89.60
16797;DHT22;8515;51.064;4.580;2022-09-09T07:59:01;16.30;89.30
16797;DHT22;8515;51.064;4.580;2022-09-09T08:01:31;16.30;89.10
16797;DHT22;8515;51.064;4.580;2022-09-09T08:04:00;16.40;88.70
16797;DHT22;8515;51.064;4.580;2022-09-09T08:06:28;16.40;89.30
16797;DHT22;8515;51.064;4.580;2022-09-09T08:08:56;16.40;89.40
16797;DHT22;8515;51.064;4.580;2022-09-09T08:11:25;16.40;89.80
16797;DHT22;8515;51.064;4.580;2022-09-09T08:13:52;16.50;90.00
16797;DHT22;8515;51.064;4.580;2022-09-09T08:16:21;16.60;90.10
16797;DHT22;8515;51.064;4.580;2022-09-09T08:18:48;16.70;89.60
16797;DHT22;8515;51.064;4.580;2022-09-09T08:21:17;16.80;89.30
16797;DHT22;8515;51.064;4.580;2022-09-09T08:23:46;16.80;89.00
16797;DHT22;8515;51.064;4.580;2022-09-09T08:26:17;16.80;88.20
16797;DHT22;8515;51.064;4.580;2022-09-09T08:28:45;16.80;87.70
16797;DHT22;8515;51.064;4.580;2022-09-09T08:31:14;16.90;88.10
16797;DHT22;8515;51.064;4.580;2022-09-09T08:33:42;16.80;87.50
16797;DHT22;8515;51.064;4.580;2022-09-09T08:36:13;16.80;87.40
16797;DHT22;8515;51.064;4.580;2022-09-09T08:38:40;16.80;87.80
16797;DHT22;8515;51.064;4.580;2022-09-09T08:41:22;16.80;88.00
16797;DHT22;8515;51.064;4.580;2022-09-09T08:44:02;16.80;87.70
16797;DHT22;8515;51.064;4.580;2022-09-09T08:46:40;16.80;87.50
16797;DHT22;8515;51.064;4.580;2022-09-09T08:49:36;16.80;87.70
16797;DHT22;8515;51.064;4.580;2022-09-09T08:52:11;16.80;87.90
16797;DHT22;8515;51.064;4.580;2022-09-09T08:54:41;16.80;88.20
16797;DHT22;8515;51.064;4.580;2022-09-09T08:57:14;16.80;88.10
16797;DHT22;8515;51.064;4.580;2022-09-09T08:59:43;16.80;87.80
16797;DHT22;8515;51.064;4.580;2022-09-09T09:02:16;16.80;87.30
16797;DHT22;8515;51.064;4.580;2022-09-09T09:04:58;16.90;87.70
16797;DHT22;8515;51.064;4.580;2022-09-09T09:07:40;16.90;87.30
16797;DHT22;8515;51.064;4.580;2022-09-09T09:10:15;16.80;88.40
16797;DHT22;8515;51.064;4.580;2022-09-09T09:12:47;16.80;89.20
16797;DHT22;8515;51.064;4.580;2022-09-09T09:15:18;16.80;89.00
16797;DHT22;8515;51.064;4.580;2022-09-09T09:17:46;16.80;90.20
16797;DHT22;8515;51.064;4.580;2022-09-09T09:20:16;16.80;90.40
16797;DHT22;8515;51.064;4.580;2022-09-09T09:22:51;16.70;89.80
16797;DHT22;8515;51.064;4.580;2022-09-09T09:25:20;16.70;90.20
16797;DHT22;8515;51.064;4.580;2022-09-09T09:27:57;16.70;90.00
16797;DHT22;8515;51.064;4.580;2022-09-09T09:30:29;16.70;90.40
16797;DHT22;8515;51.064;4.580;2022-09-09T09:33:00;16.70;90.20
16797;DHT22;8515;51.064;4.580;2022-09-09T09:35:28;16.70;90.60
16797;DHT22;8515;51.064;4.580;2022-09-09T09:37:55;16.70;90.50
16797;DHT22;8515;51.064;4.580;2022-09-09T09:40:22;16.60;90.10
16797;DHT22;8515;51.064;4.580;2022-09-09T09:42:53;16.60;90.50
16797;DHT22;8515;51.064;4.580;2022-09-09T09:45:32;16.60;90.20
16797;DHT22;8515;51.064;4.580;2022-09-09T09:48:00;16.60;90.40
16797;DHT22;8515;51.064;4.580;2022-09-09T09:50:29;16.60;90.40
16797;DHT22;8515;51.064;4.580;2022-09-09T09:52:58;16.60;90.20
16797;DHT22;8515;51.064;4.580;2022-09-09T09:55:26;16.60;90.00
16797;DHT22;8515;51.064;4.580;2022-09-09T09:57:54;16.60;90.50
16797;DHT22;8515;51.064;4.580;2022-09-09T10:00:26;16.60;90.10
16797;DHT22;8515;51.064;4.580;2022-09-09T10:02:53;16.70;90.30
16797;DHT22;8515;51.064;4.580;2022-09-09T10:05:23;16.70;90.40
16797;DHT22;8515;51.064;4.580;2022-09-09T10:08:03;16.80;90.10
16797;DHT22;8515;51.064;4.580;2022-09-09T10:10:45;16.70;90.00
16797;DHT22;8515;51.064;4.580;2022-09-09T10:13:20;16.70;89.90
16797;DHT22;8515;51.064;4.580;2022-09-09T10:15:58;16.70;90.10
16797;DHT22;8515;51.064;4.580;2022-09-09T10:18:40;16.70;90.00
16797;DHT22;8515;51.064;4.580;2022-09-09T10:21:22;16.80;89.80
16797;DHT22;8515;51.064;4.580;2022-09-09T10:24:05;16.80;90.00
16797;DHT22;8515;51.064;4.580;2022-09-09T10:26:40;16.90;89.90
16797;DHT22;8515;51.064;4.580;2022-09-09T10:29:26;17.00;89.40
16797;DHT22;8515;51.064;4.580;2022-09-09T10:32:07;17.10;88.90
16797;DHT22;8515;51.064;4.580;2022-09-09T10:34:51;17.10;88.40
16797;DHT22;8515;51.064;4.580;2022-09-09T10:37:30;17.10;88.40
16797;DHT22;8515;51.064;4.580;2022-09-09T10:40:05;17.00;88.10
16797;DHT22;8515;51.064;4.580;2022-09-09T10:42:39;17.00;88.70
16797;DHT22;8515;51.064;4.580;2022-09-09T10:45:17;17.00;88.10
16797;DHT22;8515;51.064;4.580;2022-09-09T10:48:04;17.10;88.60
16797;DHT22;8515;51.064;4.580;2022-09-09T10:50:45;17.10;88.70
16797;DHT22;8515;51.064;4.580;2022-09-09T10:53:18;17.20;87.90
16797;DHT22;8515;51.064;4.580;2022-09-09T10:55:53;17.30;88.00
16797;DHT22;8515;51.064;4.580;2022-09-09T10:58:27;17.40;87.40
16797;DHT22;8515;51.064;4.580;2022-09-09T11:01:01;17.40;86.70
16797;DHT22;8515;51.064;4.580;2022-09-09T11:03:31;17.50;86.20
16797;DHT22;8515;51.064;4.580;2022-09-09T11:06:04;17.50;86.80
16797;DHT22;8515;51.064;4.580;2022-09-09T11:08:35;17.70;85.90
16797;DHT22;8515;51.064;4.580;2022-09-09T11:11:03;17.70;85.20
16797;DHT22;8515;51.064;4.580;2022-09-09T11:13:35;17.70;85.40
16797;DHT22;8515;51.064;4.580;2022-09-09T11:16:16;17.80;85.70
16797;DHT22;8515;51.064;4.580;2022-09-09T11:18:45;17.80;85.30
16797;DHT22;8515;51.064;4.580;2022-09-09T11:21:18;17.80;84.90
16797;DHT22;8515;51.064;4.580;2022-09-09T11:23:49;17.90;84.90
16797;DHT22;8515;51.064;4.580;2022-09-09T11:26:31;17.80;84.30
16797;DHT22;8515;51.064;4.580;2022-09-09T11:29:20;17.80;84.20
16797;DHT22;8515;51.064;4.580;2022-09-09T11:32:00;17.90;84.20
16797;DHT22;8515;51.064;4.580;2022-09-09T11:34:43;17.90;83.40
16797;DHT22;8515;51.064;4.580;2022-09-09T11:37:29;18.00;83.40
16797;DHT22;8515;51.064;4.580;2022-09-09T11:40:22;18.20;83.30
16797;DHT22;8515;51.064;4.580;2022-09-09T11:43:01;18.30;82.30
16797;DHT22;8515;51.064;4.580;2022-09-09T11:45:30;18.40;80.80
16797;DHT22;8515;51.064;4.580;2022-09-09T11:48:00;18.30;81.10
16797;DHT22;8515;51.064;4.580;2022-09-09T11:50:33;18.40;81.70
16797;DHT22;8515;51.064;4.580;2022-09-09T11:53:16;18.50;81.10
16797;DHT22;8515;51.064;4.580;2022-09-09T11:55:46;18.70;81.40
16797;DHT22;8515;51.064;4.580;2022-09-09T11:58:17;18.80;80.40
16797;DHT22;8515;51.064;4.580;2022-09-09T12:00:47;18.80;79.80
16797;DHT22;8515;51.064;4.580;2022-09-09T12:03:36;18.80;80.70
16797;DHT22;8515;51.064;4.580;2022-09-09T12:06:13;18.90;80.10
16797;DHT22;8515;51.064;4.580;2022-09-09T12:08:45;18.90;79.80
16797;DHT22;8515;51.064;4.580;2022-09-09T12:11:24;18.80;79.90
16797;DHT22;8515;51.064;4.580;2022-09-09T12:13:54;18.80;80.20
16797;DHT22;8515;51.064;4.580;2022-09-09T12:16:31;19.10;80.50
16797;DHT22;8515;51.064;4.580;2022-09-09T12:19:14;19.30;79.60
16797;DHT22;8515;51.064;4.580;2022-09-09T12:21:48;19.30;79.00
16797;DHT22;8515;51.064;4.580;2022-09-09T12:24:24;19.30;78.70
16797;DHT22;8515;51.064;4.580;2022-09-09T12:26:58;19.20;78.60
16797;DHT22;8515;51.064;4.580;2022-09-09T12:29:37;19.00;79.40
16797;DHT22;8515;51.064;4.580;2022-09-09T12:32:08;19.10;79.70
16797;DHT22;8515;51.064;4.580;2022-09-09T12:34:41;19.30;78.70
16797;DHT22;8515;51.064;4.580;2022-09-09T12:37:18;19.30;78.40
16797;DHT22;8515;51.064;4.580;2022-09-09T12:39:52;19.30;78.10
16797;DHT22;8515;51.064;4.580;2022-09-09T12:42:21;19.40;78.60
16797;DHT22;8515;51.064;4.580;2022-09-09T12:44:53;19.50;78.50
16797;DHT22;8515;51.064;4.580;2022-09-09T12:47:23;19.50;78.30
16797;DHT22;8515;51.064;4.580;2022-09-09T12:49:52;19.70;78.30
16797;DHT22;8515;51.064;4.580;2022-09-09T12:52:27;19.80;77.30
16797;DHT22;8515;51.064;4.580;2022-09-09T12:54:56;19.70;77.30
16797;DHT22;8515;51.064;4.580;2022-09-09T12:57:25;19.60;77.60
16797;DHT22;8515;51.064;4.580;2022-09-09T13:00:03;19.50;77.70
16797;DHT22;8515;51.064;4.580;2022-09-09T13:02:31;19.60;78.10
16797;DHT22;8515;51.064;4.580;2022-09-09T13:05:15;19.80;77.70
16797;DHT22;8515;51.064;4.580;2022-09-09T13:07:43;19.70;77.90
16797;DHT22;8515;51.064;4.580;2022-09-09T13:10:11;19.70;77.50
16797;DHT22;8515;51.064;4.580;2022-09-09T13:12:39;19.70;78.10
16797;DHT22;8515;51.064;4.580;2022-09-09T13:15:21;19.70;77.50
16797;DHT22;8515;51.064;4.580;2022-09-09T13:17:53;19.80;78.10
16797;DHT22;8515;51.064;4.580;2022-09-09T13:20:23;19.90;77.60
16797;DHT22;8515;51.064;4.580;2022-09-09T13:22:52;19.90;78.00
16797;DHT22;8515;51.064;4.580;2022-09-09T13:25:22;19.90;77.50
16797;DHT22;8515;51.064;4.580;2022-09-09T13:27:54;20.00;77.40
16797;DHT22;8515;51.064;4.580;2022-09-09T13:30:24;20.00;76.30
16797;DHT22;8515;51.064;4.580;2022-09-09T13:33:03;20.10;75.90
16797;DHT22;8515;51.064;4.580;2022-09-09T13:35:32;19.80;76.30
16797;DHT22;8515;51.064;4.580;2022-09-09T13:38:06;19.70;76.90
16797;DHT22;8515;51.064;4.580;2022-09-09T13:40:34;19.70;77.40
16797;DHT22;8515;51.064;4.580;2022-09-09T13:43:02;19.60;77.20
16797;DHT22;8515;51.064;4.580;2022-09-09T13:45:30;19.60;77.80
16797;DHT22;8515;51.064;4.580;2022-09-09T13:48:09;19.60;76.70
16797;DHT22;8515;51.064;4.580;2022-09-09T13:50:37;19.60;77.00
16797;DHT22;8515;51.064;4.580;2022-09-09T13:53:07;19.50;77.00
16797;DHT22;8515;51.064;4.580;2022-09-09T13:55:36;19.60;76.80
16797;DHT22;8515;51.064;4.580;2022-09-09T13:58:04;19.80;77.00
16797;DHT22;8515;51.064;4.580;2022-09-09T14:00:34;19.90;76.60
16797;DHT22;8515;51.064;4.580;2022-09-09T14:03:01;19.90;76.30
16797;DHT22;8515;51.064;4.580;2022-09-09T14:05:29;19.90;76.20
16797;DHT22;8515;51.064;4.580;2022-09-09T14:07:58;19.80;76.70
16797;DHT22;8515;51.064;4.580;2022-09-09T14:10:26;19.70;76.80
16797;DHT22;8515;51.064;4.580;2022-09-09T14:12:53;19.70;76.90
16797;DHT22;8515;51.064;4.580;2022-09-09T14:15:20;19.80;77.10
16797;DHT22;8515;51.064;4.580;2022-09-09T14:17:47;19.70;77.00
16797;DHT22;8515;51.064;4.580;2022-09-09T14:20:14;19.60;77.50
16797;DHT22;8515;51.064;4.580;2022-09-09T14:22:43;19.60;77.40
16797;DHT22;8515;51.064;4.580;2022-09-09T14:25:12;19.70;77.00
16797;DHT22;8515;51.064;4.580;2022-09-09T14:27:39;19.70;76.70
16797;DHT22;8515;51.064;4.580;2022-09-09T14:30:08;19.70;76.10
16797;DHT22;8515;51.064;4.580;2022-09-09T14:32:36;19.90;75.90
16797;DHT22;8515;51.064;4.580;2022-09-09T14:35:03;20.00;75.50
16797;DHT22;8515;51.064;4.580;2022-09-09T14:37:30;20.10;75.20
16797;DHT22;8515;51.064;4.580;2022-09-09T14:39:57;20.30;74.70
16797;DHT22;8515;51.064;4.580;2022-09-09T14:42:26;20.50;74.50
16797;DHT22;8515;51.064;4.580;2022-09-09T14:44:54;20.60;74.50
16797;DHT22;8515;51.064;4.580;2022-09-09T14:47:21;20.70;73.00
16797;DHT22;8515;51.064;4.580;2022-09-09T14:49:48;20.50;72.30
16797;DHT22;8515;51.064;4.580;2022-09-09T14:52:16;20.40;73.20
16797;DHT22;8515;51.064;4.580;2022-09-09T14:54:43;20.30;73.30
16797;DHT22;8515;51.064;4.580;2022-09-09T14:57:10;20.20;72.90
16797;DHT22;8515;51.064;4.580;2022-09-09T14:59:38;20.20;73.80
16797;DHT22;8515;51.064;4.580;2022-09-09T15:02:05;20.30;73.80
16797;DHT22;8515;51.064;4.580;2022-09-09T15:04:32;20.30;74.10
16797;DHT22;8515;51.064;4.580;2022-09-09T15:06:59;20.20;74.70
16797;DHT22;8515;51.064;4.580;2022-09-09T15:09:26;20.10;75.30
16797;DHT22;8515;51.064;4.580;2022-09-09T15:11:53;19.90;75.90
16797;DHT22;8515;51.064;4.580;2022-09-09T15:14:19;19.80;76.00
16797;DHT22;8515;51.064;4.580;2022-09-09T15:16:48;19.70;76.70
16797;DHT22;8515;51.064;4.580;2022-09-09T15:19:14;19.70;78.90
16797;DHT22;8515;51.064;4.580;2022-09-09T15:21:41;19.70;78.80
16797;DHT22;8515;51.064;4.580;2022-09-09T15:24:08;19.60;80.20
16797;DHT22;8515;51.064;4.580;2022-09-09T15:26:37;19.50;78.70
16797;DHT22;8515;51.064;4.580;2022-09-09T15:29:05;19.30;80.40
16797;DHT22;8515;51.064;4.580;2022-09-09T15:31:33;18.70;77.30
16797;DHT22;8515;51.064;4.580;2022-09-09T15:34:03;17.90;78.30
16797;DHT22;8515;51.064;4.580;2022-09-09T15:36:33;17.70;80.80
16797;DHT22;8515;51.064;4.580;2022-09-09T15:39:01;17.50;79.00
16797;DHT22;8515;51.064;4.580;2022-09-09T15:41:29;17.30;81.30
16797;DHT22;8515;51.064;4.580;2022-09-09T15:43:57;17.20;82.90
16797;DHT22;8515;51.064;4.580;2022-09-09T15:46:27;16.90;86.50
16797;DHT22;8515;51.064;4.580;2022-09-09T15:48:56;16.80;88.70
16797;DHT22;8515;51.064;4.580;2022-09-09T15:51:25;16.80;86.80
16797;DHT22;8515;51.064;4.580;2022-09-09T15:53:57;16.80;87.40
16797;DHT22;8515;51.064;4.580;2022-09-09T15:56:25;16.80;88.00
16797;DHT22;8515;51.064;4.580;2022-09-09T15:58:53;16.80;88.20
16797;DHT22;8515;51.064;4.580;2022-09-09T16:01:20;16.90;88.90
16797;DHT22;8515;51.064;4.580;2022-09-09T16:03:47;17.00;88.80
16797;DHT22;8515;51.064;4.580;2022-09-09T16:06:16;17.00;89.40
16797;DHT22;8515;51.064;4.580;2022-09-09T16:08:45;17.10;90.00